Time;durP1;ratioP1;P1;durP2;ratioP2;P2;SDS_P1;SDS_P2;PMS_P1;PMS_P2;Temp;Humidity;BMP_temperature;BMP_pressure;BME280_temperature;BME280_humidity;BME280_pressure;Samples;Min_cycle;Max_cycle;Signal;HPM_P1;HPM_P2
2023/01/06 00:00:34;;;;;;;8.67;7.20;;;11.10;99.90;;;;;;5076301;28;20490;-78
2023/01/06 00:03:01;;;;;;;12.13;7.17;;;11.10;99.90;;;;;;5077484;28;20450;-77
2023/01/06 00:05:28;;;;;;;9.30;6.87;;;11.10;99.90;;;;;;5077271;28;20455;-77
2023/01/06 00:07:55;;;;;;;8.33;6.10;;;11.00;99.90;;;;;;5076275;28;20465;-80
2023/01/06 00:10:28;;;;;;;8.57;5.23;;;11.10;99.90;;;;;;5077561;28;20473;-81
2023/01/06 00:12:55;;;;;;;6.33;5.13;;;11.10;99.90;;;;;;5076394;28;20464;-78
2023/01/06 00:15:22;;;;;;;8.50;4.30;;;11.10;99.90;;;;;;5076440;28;20546;-79
2023/01/06 00:17:50;;;;;;;9.90;4.63;;;11.00;99.90;;;;;;5108183;23;20588;-81
2023/01/06 00:20:17;;;;;;;6.33;4.17;;;11.00;99.90;;;;;;5065566;28;20866;-79
2023/01/06 00:22:44;;;;;;;5.37;3.13;;;11.00;99.90;;;;;;5061560;28;20454;-79
2023/01/06 00:25:11;;;;;;;5.60;3.30;;;11.00;99.90;;;;;;5061825;28;20455;-80
2023/01/06 00:27:38;;;;;;;7.97;3.53;;;10.90;99.90;;;;;;5055012;28;20522;-78
2023/01/06 00:30:07;;;;;;;5.40;3.10;;;11.00;99.90;;;;;;5042171;28;20452;-82
2023/01/06 00:32:34;;;;;;;4.47;2.57;;;11.00;99.90;;;;;;5043957;28;20521;-81
2023/01/06 00:35:03;;;;;;;3.97;2.80;;;10.90;99.90;;;;;;5057747;28;20542;-81
2023/01/06 00:37:29;;;;;;;5.23;2.73;;;10.90;99.90;;;;;;5058284;28;20561;-81
2023/01/06 00:39:56;;;;;;;8.47;2.87;;;11.00;99.90;;;;;;5057499;28;20482;-80
2023/01/06 00:42:24;;;;;;;7.70;3.00;;;11.00;99.90;;;;;;5057822;28;20481;-77
2023/01/06 00:44:51;;;;;;;6.57;2.73;;;11.00;99.90;;;;;;5058644;28;20824;-80
2023/01/06 00:47:19;;;;;;;2.50;2.03;;;11.10;99.90;;;;;;5051138;28;20484;-80
2023/01/06 00:49:46;;;;;;;3.90;2.27;;;11.10;99.90;;;;;;5036711;28;20457;-82
2023/01/06 00:52:15;;;;;;;6.03;2.70;;;11.10;99.90;;;;;;5040778;28;20457;-79
2023/01/06 00:54:42;;;;;;;7.63;2.60;;;11.10;99.90;;;;;;5038736;28;20489;-79
2023/01/06 00:57:10;;;;;;;3.70;2.00;;;11.10;99.90;;;;;;5038001;28;20993;-78
2023/01/06 00:59:37;;;;;;;6.60;2.40;;;11.10;99.90;;;;;;5042846;28;20483;-81
2023/01/06 01:02:04;;;;;;;2.80;2.17;;;11.10;99.90;;;;;;5040902;28;21113;-81
2023/01/06 01:04:31;;;;;;;6.50;2.50;;;11.20;99.90;;;;;;5052965;28;20538;-82
2023/01/06 01:06:59;;;;;;;3.53;1.73;;;11.10;99.90;;;;;;5037490;28;20567;-81
2023/01/06 01:09:29;;;;;;;4.03;1.63;;;11.20;99.90;;;;;;5051607;28;20462;-80
2023/01/06 01:12:09;;;;;;;5.37;2.17;;;11.20;99.90;;;;;;5054456;28;20452;-79
2023/01/06 01:14:37;;;;;;;6.80;1.60;;;11.20;99.90;;;;;;5042369;28;20457;-79
2023/01/06 01:17:03;;;;;;;5.33;1.60;;;11.10;99.90;;;;;;5031494;28;21094;-80
2023/01/06 01:19:30;;;;;;;5.53;1.63;;;11.10;99.90;;;;;;5056934;28;20496;-79
2023/01/06 01:21:57;;;;;;;5.93;2.47;;;11.20;99.90;;;;;;5054668;28;20546;-81
2023/01/06 01:24:24;;;;;;;2.63;1.70;;;11.20;99.90;;;;;;5056360;28;20497;-80
2023/01/06 01:26:52;;;;;;;3.17;1.30;;;11.20;99.90;;;;;;5054300;28;20475;-81
2023/01/06 01:29:19;;;;;;;5.43;1.53;;;11.20;99.90;;;;;;5042219;28;20452;-78
2023/01/06 01:31:47;;;;;;;2.40;1.47;;;11.20;99.90;;;;;;5037284;28;20452;-81
2023/01/06 01:34:15;;;;;;;3.40;1.50;;;11.20;99.90;;;;;;5054334;28;20928;-79
2023/01/06 01:36:43;;;;;;;4.00;1.50;;;11.10;99.90;;;;;;5032213;28;20473;-80
2023/01/06 01:39:12;;;;;;;1.50;1.10;;;11.20;99.90;;;;;;5028663;28;20461;-82
2023/01/06 01:41:39;;;;;;;3.20;1.50;;;11.10;99.90;;;;;;5036462;28;20479;-82
2023/01/06 01:44:39;;;;;;;2.80;1.30;;;11.20;99.90;;;;;;5035959;28;20856;-81
2023/01/06 01:47:09;;;;;;;2.93;1.33;;;11.10;99.90;;;;;;5039529;28;20856;-82
2023/01/06 01:49:38;;;;;;;2.60;1.20;;;11.10;99.90;;;;;;5034998;28;20447;-80
2023/01/06 01:52:07;;;;;;;2.00;1.20;;;11.10;99.90;;;;;;5053256;28;20452;-82
2023/01/06 01:54:35;;;;;;;5.07;1.30;;;11.00;99.90;;;;;;5039074;28;20809;-82
2023/01/06 01:57:08;;;;;;;3.80;1.63;;;11.10;99.90;;;;;;5055806;28;20476;-82
2023/01/06 01:59:38;;;;;;;3.77;1.30;;;11.10;99.90;;;;;;5051186;28;20597;-81
2023/01/06 02:02:06;;;;;;;12.10;1.50;;;11.20;99.90;;;;;;5056451;28;20455;-80
2023/01/06 02:04:36;;;;;;;2.50;1.10;;;11.20;99.90;;;;;;5039905;28;20484;-82
2023/01/06 02:07:05;;;;;;;4.40;1.87;;;11.30;99.90;;;;;;5035208;28;20464;-79
2023/01/06 02:09:37;;;;;;;5.73;1.10;;;11.20;99.90;;;;;;5034529;28;20456;-80
2023/01/06 02:12:04;;;;;;;3.70;1.10;;;11.20;99.90;;;;;;5043442;28;20499;-81
2023/01/06 02:14:31;;;;;;;5.53;1.30;;;11.20;99.90;;;;;;5052717;28;20455;-80
2023/01/06 02:17:14;;;;;;;2.20;1.37;;;11.20;99.90;;;;;;5044696;28;20484;-81
2023/01/06 02:20:38;;;;;;;3.40;1.10;;;11.20;99.90;;;;;;5034040;28;20721;-80
2023/01/06 02:23:35;;;;;;;4.37;1.20;;;11.20;99.90;;;;;;4958158;28;21001;-81
2023/01/06 02:26:49;;;;;;;3.00;1.30;;;11.10;99.90;;;;;;5035632;28;20522;-81
2023/01/06 02:29:46;;;;;;;11.80;4.87;;;11.20;99.90;;;;;;5042828;28;20451;-80
2023/01/06 02:32:27;;;;;;;4.37;1.60;;;11.20;99.90;;;;;;5054999;28;20457;-81
2023/01/06 02:35:07;;;;;;;5.93;1.70;;;11.20;99.90;;;;;;5035261;28;20447;-80
2023/01/06 02:37:43;;;;;;;1.80;1.50;;;11.10;99.90;;;;;;5031435;28;20566;-79
2023/01/06 02:40:23;;;;;;;4.20;1.27;;;11.20;99.90;;;;;;5035519;28;20480;-82
2023/01/06 02:43:03;;;;;;;5.73;1.40;;;11.20;99.90;;;;;;5038009;28;20451;-82
2023/01/06 02:45:40;;;;;;;4.20;1.40;;;11.30;99.90;;;;;;5032645;28;20452;-80
2023/01/06 02:48:14;;;;;;;2.30;1.07;;;11.20;99.90;;;;;;5032576;28;20989;-78
2023/01/06 02:50:46;;;;;;;4.47;1.73;;;11.20;99.90;;;;;;5011561;28;20452;-81
2023/01/06 02:53:22;;;;;;;5.40;1.30;;;11.20;99.90;;;;;;5025519;28;20451;-80
2023/01/06 02:55:50;;;;;;;2.33;1.00;;;11.30;99.90;;;;;;5028551;28;20455;-80
2023/01/06 02:58:26;;;;;;;6.90;2.20;;;11.30;99.90;;;;;;5050811;28;20448;-80
2023/01/06 03:00:59;;;;;;;4.63;1.27;;;11.30;99.90;;;;;;5043362;28;20475;-80
2023/01/06 03:03:30;;;;;;;2.60;1.27;;;11.30;99.90;;;;;;5040657;28;20456;-81
2023/01/06 03:06:04;;;;;;;7.70;1.20;;;11.40;99.90;;;;;;5052632;28;20452;-80
2023/01/06 03:08:32;;;;;;;5.30;1.30;;;11.40;99.90;;;;;;5037140;28;20456;-80
2023/01/06 03:11:00;;;;;;;3.33;2.07;;;11.40;99.90;;;;;;5032180;28;20472;-80
2023/01/06 03:13:33;;;;;;;5.20;1.30;;;11.30;99.90;;;;;;5039439;28;20450;-81
2023/01/06 03:16:00;;;;;;;5.30;2.30;;;11.30;99.90;;;;;;5044619;28;21169;-81
2023/01/06 03:18:29;;;;;;;4.17;1.40;;;11.20;99.90;;;;;;5032145;28;20474;-81
2023/01/06 03:20:59;;;;;;;2.50;1.10;;;11.20;99.90;;;;;;5035604;28;20483;-81
2023/01/06 03:23:26;;;;;;;2.73;1.37;;;11.20;99.90;;;;;;5042076;28;20841;-81
2023/01/06 03:25:53;;;;;;;10.07;1.67;;;11.10;99.90;;;;;;5033867;28;20564;-81
2023/01/06 03:28:20;;;;;;;2.87;1.30;;;11.10;99.90;;;;;;5037700;28;20471;-81
2023/01/06 03:30:52;;;;;;;5.50;1.83;;;11.20;99.90;;;;;;5037206;28;20886;-80
2023/01/06 03:33:25;;;;;;;2.97;1.20;;;11.20;99.90;;;;;;5045710;28;20451;-79
2023/01/06 03:36:07;;;;;;;4.13;1.50;;;11.20;99.90;;;;;;5052377;28;20456;-78
2023/01/06 03:38:47;;;;;;;2.43;1.10;;;11.20;99.90;;;;;;5048025;28;20458;-80
2023/01/06 03:43:10;;;;;;;3.90;1.40;;;11.20;99.90;;;;;;5046715;28;20482;-80
2023/01/06 03:44:18;;;;;;;2.87;1.50;;;11.20;99.90;;;;;;5047254;28;20455;-81
2023/01/06 03:46:54;;;;;;;4.87;1.30;;;11.30;99.90;;;;;;5040490;28;20479;-80
2023/01/06 03:49:28;;;;;;;2.83;1.30;;;11.30;99.90;;;;;;5041445;28;20465;-81
2023/01/06 03:51:59;;;;;;;1.90;1.20;;;11.20;99.90;;;;;;5050770;28;20444;-83
2023/01/06 03:54:37;;;;;;;2.73;1.17;;;11.20;99.90;;;;;;5060501;28;20550;-85
2023/01/06 03:57:08;;;;;;;3.43;1.40;;;11.20;99.90;;;;;;5041558;28;20475;-82
2023/01/06 03:59:40;;;;;;;3.27;1.30;;;11.30;99.90;;;;;;5060336;28;20454;-82
2023/01/06 04:02:07;;;;;;;4.57;1.10;;;11.20;99.90;;;;;;5030947;28;20480;-81
2023/01/06 04:04:34;;;;;;;2.50;1.13;;;11.20;99.90;;;;;;5046639;28;20453;-84
2023/01/06 04:07:02;;;;;;;2.83;1.27;;;11.30;99.90;;;;;;5042552;28;20559;-83
2023/01/06 04:09:29;;;;;;;2.83;0.90;;;11.30;99.90;;;;;;5038626;28;20487;-82
2023/01/06 04:14:40;;;;;;;4.53;1.20;;;11.30;99.90;;;;;;5039066;28;20454;-84
2023/01/06 04:17:07;;;;;;;2.57;1.00;;;11.20;99.90;;;;;;5023699;28;20546;-83
2023/01/06 04:19:34;;;;;;;4.67;1.10;;;11.20;99.90;;;;;;5038786;28;20578;-83
2023/01/06 04:22:02;;;;;;;5.33;1.43;;;11.20;99.90;;;;;;5040054;28;20849;-84
2023/01/06 04:24:29;;;;;;;2.87;1.00;;;11.20;99.90;;;;;;5047078;28;20456;-85
2023/01/06 04:26:56;;;;;;;4.43;1.00;;;11.20;99.90;;;;;;5040470;28;20535;-84
2023/01/06 04:29:23;;;;;;;3.20;0.87;;;11.20;99.90;;;;;;5039798;28;20510;-82
2023/01/06 04:31:50;;;;;;;3.50;1.10;;;11.20;99.90;;;;;;5049521;28;20452;-84
2023/01/06 04:34:17;;;;;;;2.60;1.67;;;11.20;99.90;;;;;;5052865;28;20475;-84
2023/01/06 04:36:44;;;;;;;2.70;1.03;;;11.20;99.90;;;;;;5053861;28;20472;-83
2023/01/06 04:39:12;;;;;;;3.97;1.20;;;11.20;99.90;;;;;;5044091;28;20832;-83
2023/01/06 04:41:39;;;;;;;2.90;0.90;;;11.20;99.90;;;;;;5050124;28;21058;-83
2023/01/06 04:44:05;;;;;;;4.43;1.00;;;11.20;99.90;;;;;;5063164;28;20527;-84
2023/01/06 04:46:32;;;;;;;4.47;1.30;;;11.20;99.90;;;;;;5050751;28;20535;-83
2023/01/06 04:48:59;;;;;;;3.50;1.10;;;11.20;99.90;;;;;;5048107;28;20543;-83
2023/01/06 04:51:26;;;;;;;2.53;0.93;;;11.20;99.90;;;;;;5044674;28;21044;-84
2023/01/06 04:53:53;;;;;;;4.23;0.90;;;11.20;99.90;;;;;;5053964;28;20454;-84
2023/01/06 04:56:21;;;;;;;3.10;1.37;;;11.30;99.90;;;;;;5060745;28;20483;-81
2023/01/06 04:58:48;;;;;;;3.87;1.03;;;11.20;99.90;;;;;;5042368;28;20500;-84
2023/01/06 05:01:14;;;;;;;3.53;1.13;;;11.20;99.90;;;;;;5050194;28;20591;-82
2023/01/06 05:03:41;;;;;;;5.20;1.17;;;11.30;99.90;;;;;;5062821;28;20598;-82
2023/01/06 05:06:11;;;;;;;3.47;1.40;;;11.30;99.90;;;;;;5056271;28;20479;-84
2023/01/06 05:08:38;;;;;;;1.97;0.90;;;11.20;99.90;;;;;;5056200;28;20456;-83
2023/01/06 05:11:08;;;;;;;2.27;1.00;;;11.20;99.90;;;;;;5052378;28;20443;-82
2023/01/06 05:13:36;;;;;;;1.70;1.00;;;11.20;99.90;;;;;;5038888;28;20458;-82
2023/01/06 05:16:06;;;;;;;2.47;1.20;;;11.20;99.90;;;;;;5038084;28;20457;-83
2023/01/06 05:18:33;;;;;;;5.00;1.30;;;11.20;99.90;;;;;;5036790;28;20447;-83
2023/01/06 05:21:00;;;;;;;5.70;1.20;;;11.30;99.90;;;;;;5028513;28;20499;-83
2023/01/06 05:23:27;;;;;;;5.73;1.13;;;11.30;99.90;;;;;;5051054;28;20520;-82
2023/01/06 05:25:54;;;;;;;2.70;1.10;;;11.30;99.90;;;;;;5058308;28;20457;-81
2023/01/06 05:28:21;;;;;;;7.83;1.17;;;11.30;99.90;;;;;;5058672;28;20512;-83
2023/01/06 05:30:49;;;;;;;3.60;1.00;;;11.20;99.90;;;;;;5056066;28;20470;-84
2023/01/06 05:33:16;;;;;;;2.57;1.23;;;11.20;99.90;;;;;;5042632;28;20457;-80
2023/01/06 05:35:43;;;;;;;3.97;1.40;;;11.30;99.90;;;;;;5039582;28;20455;-81
2023/01/06 05:38:10;;;;;;;1.70;0.83;;;11.20;99.90;;;;;;5055232;28;20489;-83
2023/01/06 05:40:37;;;;;;;7.53;1.23;;;11.20;99.90;;;;;;5037642;28;21008;-82
2023/01/06 05:43:04;;;;;;;7.20;2.93;;;11.20;99.90;;;;;;5037624;28;20554;-80
2023/01/06 05:45:30;;;;;;;1.90;1.17;;;11.20;99.90;;;;;;5037484;28;20452;-82
2023/01/06 05:48:01;;;;;;;2.50;1.10;;;11.20;99.90;;;;;;5037852;28;20480;-82
2023/01/06 05:50:27;;;;;;;7.17;1.20;;;11.20;99.90;;;;;;5035848;28;20833;-82
2023/01/06 05:52:54;;;;;;;3.03;1.07;;;11.20;99.90;;;;;;5041675;28;20464;-81
2023/01/06 05:55:21;;;;;;;2.20;1.00;;;11.20;99.90;;;;;;5036647;28;20928;-83
2023/01/06 05:57:48;;;;;;;7.13;1.27;;;11.20;99.90;;;;;;5041236;28;20485;-82
2023/01/06 06:00:15;;;;;;;2.43;1.30;;;11.20;99.90;;;;;;5033519;28;20546;-82
2023/01/06 06:02:42;;;;;;;3.00;1.13;;;11.20;99.90;;;;;;5045587;28;20502;-83
2023/01/06 06:05:11;;;;;;;6.00;1.00;;;11.20;99.90;;;;;;5043649;28;20455;-82
2023/01/06 06:07:38;;;;;;;3.00;1.23;;;11.20;99.90;;;;;;5034578;28;20893;-83
2023/01/06 06:10:06;;;;;;;4.33;1.27;;;11.20;99.90;;;;;;5033846;28;20551;-82
2023/01/06 06:12:33;;;;;;;4.03;1.10;;;11.20;99.90;;;;;;5045559;28;20451;-82
2023/01/06 06:15:00;;;;;;;2.27;1.00;;;11.30;99.90;;;;;;5048215;28;20543;-82
2023/01/06 06:17:27;;;;;;;1.70;0.77;;;11.20;99.90;;;;;;5065401;22;20480;-81
2023/01/06 06:19:54;;;;;;;1.70;0.90;;;11.30;99.90;;;;;;5051371;28;20834;-78
2023/01/06 06:22:22;;;;;;;2.27;1.03;;;11.20;99.90;;;;;;5050451;28;20894;-80
2023/01/06 06:24:49;;;;;;;3.43;1.00;;;11.30;99.90;;;;;;5051174;28;20469;-81
2023/01/06 06:27:16;;;;;;;2.73;1.20;;;11.30;99.90;;;;;;5052884;28;20448;-79
2023/01/06 06:29:42;;;;;;;7.03;1.60;;;11.30;99.90;;;;;;5048024;28;20457;-82
2023/01/06 06:32:09;;;;;;;1.90;1.20;;;11.20;99.90;;;;;;5052902;28;20472;-79
2023/01/06 06:34:36;;;;;;;2.93;1.10;;;11.10;99.90;;;;;;5035506;28;20472;-81
2023/01/06 06:37:03;;;;;;;4.60;1.03;;;11.00;99.90;;;;;;5021985;28;20483;-79
2023/01/06 06:39:31;;;;;;;4.43;1.40;;;11.00;99.90;;;;;;5020276;28;20461;-80
2023/01/06 06:41:58;;;;;;;2.30;1.20;;;11.00;99.90;;;;;;5036222;28;20492;-81
2023/01/06 06:44:25;;;;;;;4.07;1.20;;;11.10;99.90;;;;;;5055140;28;20825;-80
2023/01/06 06:46:51;;;;;;;3.60;1.03;;;11.10;99.90;;;;;;5040232;28;20460;-81
2023/01/06 06:49:18;;;;;;;2.17;1.10;;;11.10;99.90;;;;;;5024512;28;20575;-81
2023/01/06 06:51:47;;;;;;;2.47;1.10;;;11.10;99.90;;;;;;5027256;28;20895;-80
2023/01/06 06:54:14;;;;;;;1.60;0.90;;;11.00;99.90;;;;;;5045846;28;20445;-80
2023/01/06 06:56:42;;;;;;;1.90;1.20;;;11.10;99.90;;;;;;5042714;28;20462;-80
2023/01/06 06:59:09;;;;;;;3.07;1.23;;;11.10;99.90;;;;;;5053898;28;20889;-81
2023/01/06 07:01:36;;;;;;;4.43;0.90;;;11.00;99.90;;;;;;5039065;28;20479;-80
2023/01/06 07:04:02;;;;;;;4.00;1.13;;;11.10;99.90;;;;;;5055762;28;20463;-81
2023/01/06 07:06:30;;;;;;;3.10;1.20;;;11.10;99.90;;;;;;5046861;28;20455;-81
2023/01/06 07:08:57;;;;;;;2.80;1.00;;;11.10;99.90;;;;;;5045650;28;20485;-81
2023/01/06 07:11:24;;;;;;;1.80;1.13;;;11.10;99.90;;;;;;5035484;28;20535;-81
2023/01/06 07:13:52;;;;;;;1.53;0.90;;;11.10;99.90;;;;;;5056548;28;20967;-82
2023/01/06 07:16:21;;;;;;;1.50;0.70;;;11.00;99.90;;;;;;5056698;28;20446;-81
2023/01/06 07:18:48;;;;;;;4.40;0.90;;;11.00;99.90;;;;;;5046233;28;20978;-81
2023/01/06 07:21:15;;;;;;;2.33;1.07;;;11.10;99.90;;;;;;5054175;28;20462;-83
2023/01/06 07:23:42;;;;;;;1.63;0.70;;;11.00;99.90;;;;;;5060203;28;20445;-81
2023/01/06 07:26:10;;;;;;;1.70;0.80;;;11.00;99.90;;;;;;5048436;28;20460;-80
2023/01/06 07:28:37;;;;;;;1.97;0.80;;;11.00;99.90;;;;;;5031668;28;20479;-79
2023/01/06 07:31:05;;;;;;;6.07;0.93;;;11.00;99.90;;;;;;5037330;28;20463;-80
2023/01/06 07:33:35;;;;;;;2.07;0.80;;;11.10;99.90;;;;;;5037857;28;20893;-80
2023/01/06 07:36:02;;;;;;;2.33;0.80;;;11.10;99.90;;;;;;5053647;28;20465;-80
2023/01/06 07:38:28;;;;;;;1.60;0.87;;;11.00;99.90;;;;;;5045880;28;20476;-80
2023/01/06 07:41:00;;;;;;;4.20;0.87;;;11.00;99.90;;;;;;5044377;28;20450;-80
2023/01/06 07:43:27;;;;;;;3.73;0.80;;;11.00;99.90;;;;;;5034361;28;20460;-80
2023/01/06 07:45:54;;;;;;;3.43;1.00;;;11.10;99.90;;;;;;5035397;28;20987;-79
2023/01/06 07:48:22;;;;;;;3.03;1.27;;;11.10;99.90;;;;;;5041077;28;20919;-81
2023/01/06 07:50:49;;;;;;;6.93;1.00;;;11.10;99.90;;;;;;5041274;28;20448;-82
2023/01/06 07:53:15;;;;;;;1.97;0.97;;;11.20;99.90;;;;;;5048773;28;20458;-82
2023/01/06 07:55:42;;;;;;;2.23;1.00;;;11.20;99.90;;;;;;5056088;28;20455;-83
2023/01/06 07:58:10;;;;;;;2.50;1.00;;;11.30;99.90;;;;;;5045898;28;20886;-81
2023/01/06 08:00:37;;;;;;;1.50;1.00;;;11.30;99.90;;;;;;5036895;28;20523;-82
2023/01/06 08:03:06;;;;;;;6.10;1.30;;;11.30;99.90;;;;;;5040208;28;20491;-81
2023/01/06 08:05:37;;;;;;;2.47;0.90;;;11.30;99.90;;;;;;5047899;28;20505;-82
2023/01/06 08:08:04;;;;;;;2.37;0.93;;;11.30;99.90;;;;;;5044708;28;20558;-82
2023/01/06 08:10:31;;;;;;;3.00;1.17;;;11.30;99.90;;;;;;5052236;28;20466;-81
2023/01/06 08:12:58;;;;;;;4.70;0.90;;;11.30;99.90;;;;;;5043468;28;20470;-80
2023/01/06 08:15:24;;;;;;;1.97;0.80;;;11.30;99.90;;;;;;5041038;28;20525;-83
2023/01/06 08:17:52;;;;;;;1.80;0.80;;;11.40;99.90;;;;;;5055602;28;20842;-81
2023/01/06 08:20:19;;;;;;;1.50;0.80;;;11.30;99.90;;;;;;5046045;28;20956;-81
2023/01/06 08:22:47;;;;;;;2.43;1.00;;;11.30;99.90;;;;;;5040019;28;20495;-81
2023/01/06 08:25:14;;;;;;;4.80;1.00;;;11.30;99.90;;;;;;5056905;28;20457;-82
2023/01/06 08:27:41;;;;;;;2.20;0.80;;;11.30;99.90;;;;;;5057607;28;20486;-82
2023/01/06 08:30:09;;;;;;;1.90;0.90;;;11.40;99.90;;;;;;5057075;28;20897;-82
2023/01/06 08:32:36;;;;;;;1.87;0.93;;;11.40;99.90;;;;;;5049457;28;20535;-82
2023/01/06 08:35:03;;;;;;;1.60;0.73;;;11.30;99.90;;;;;;5046370;28;20455;-81
2023/01/06 08:37:30;;;;;;;3.50;1.10;;;11.30;99.90;;;;;;5058102;28;20478;-80
2023/01/06 08:39:58;;;;;;;3.43;1.00;;;11.40;99.90;;;;;;5041281;28;20541;-80
2023/01/06 08:42:25;;;;;;;2.40;0.97;;;11.40;99.90;;;;;;5038782;28;20582;-80
2023/01/06 08:44:52;;;;;;;2.57;1.00;;;11.40;99.90;;;;;;5044018;28;20996;-81
2023/01/06 08:47:19;;;;;;;1.50;0.80;;;11.40;99.90;;;;;;5041079;28;20536;-79
2023/01/06 08:49:48;;;;;;;2.30;1.20;;;11.40;99.90;;;;;;5046898;28;20798;-81
2023/01/06 08:52:15;;;;;;;1.70;0.90;;;11.40;99.90;;;;;;5048800;28;20546;-79
2023/01/06 08:54:42;;;;;;;1.53;0.77;;;11.30;99.90;;;;;;5047513;28;20443;-80
2023/01/06 08:57:10;;;;;;;2.03;1.10;;;11.30;99.90;;;;;;5051677;28;20510;-82
2023/01/06 08:59:37;;;;;;;1.80;0.97;;;11.30;99.90;;;;;;5037268;28;20555;-82
2023/01/06 09:02:04;;;;;;;2.23;1.13;;;11.30;99.90;;;;;;5037557;28;20487;-82
2023/01/06 09:04:30;;;;;;;5.30;1.00;;;11.30;99.90;;;;;;5029838;28;20452;-79
2023/01/06 09:06:57;;;;;;;1.90;0.90;;;11.40;99.90;;;;;;5023589;28;20467;-80
2023/01/06 09:09:24;;;;;;;5.37;1.10;;;11.40;99.90;;;;;;5018859;28;20471;-81
2023/01/06 09:11:51;;;;;;;1.93;0.90;;;11.40;99.90;;;;;;5055996;28;20455;-81
2023/01/06 09:14:19;;;;;;;3.00;1.00;;;11.40;99.90;;;;;;5048273;28;20539;-81
2023/01/06 09:16:47;;;;;;;3.40;1.00;;;11.40;99.90;;;;;;5044124;28;20551;-81
2023/01/06 09:19:15;;;;;;;2.17;0.90;;;11.30;99.90;;;;;;5041466;28;20549;-81
2023/01/06 09:21:42;;;;;;;2.63;1.70;;;11.40;99.90;;;;;;5040888;28;20483;-81
2023/01/06 09:24:12;;;;;;;2.00;1.00;;;11.50;99.90;;;;;;5035471;28;20954;-81
2023/01/06 09:26:38;;;;;;;2.20;0.70;;;11.40;99.90;;;;;;5047610;28;20454;-81
2023/01/06 09:29:05;;;;;;;3.37;0.90;;;11.40;99.90;;;;;;5053463;28;20511;-81
2023/01/06 09:31:33;;;;;;;3.07;0.90;;;11.30;99.90;;;;;;5069371;28;20456;-79
2023/01/06 09:34:00;;;;;;;1.53;0.80;;;11.40;99.90;;;;;;5055342;28;20449;-82
2023/01/06 09:36:27;;;;;;;2.63;0.93;;;11.40;99.90;;;;;;5040495;28;20461;-82
2023/01/06 09:38:55;;;;;;;2.63;1.00;;;11.40;99.90;;;;;;5040947;28;20564;-82
2023/01/06 09:41:43;;;;;;;2.43;0.83;;;11.60;99.90;;;;;;5050525;28;20451;-83
2023/01/06 09:44:14;;;;;;;2.13;1.10;;;11.60;99.90;;;;;;5051459;28;20455;-82
2023/01/06 09:46:46;;;;;;;1.73;0.80;;;11.60;99.90;;;;;;5041429;28;20449;-83
2023/01/06 09:49:23;;;;;;;1.93;0.97;;;11.50;99.90;;;;;;5040741;28;20562;-81
2023/01/06 09:51:52;;;;;;;1.50;0.90;;;11.40;99.90;;;;;;5045964;28;20539;-80
2023/01/06 09:54:23;;;;;;;3.47;0.70;;;11.30;99.90;;;;;;5029605;28;20467;-82
2023/01/06 09:56:56;;;;;;;1.70;1.17;;;11.20;99.90;;;;;;5050016;28;20448;-81
2023/01/06 09:59:30;;;;;;;4.10;1.03;;;11.30;99.90;;;;;;5033767;28;20478;-82
2023/01/06 10:02:01;;;;;;;2.37;1.10;;;11.30;99.90;;;;;;5028470;28;20558;-82
2023/01/06 10:04:29;;;;;;;1.73;1.00;;;11.30;99.90;;;;;;5021579;28;20900;-80
2023/01/06 10:07:07;;;;;;;2.43;1.10;;;11.20;99.90;;;;;;5039029;28;20448;-81
2023/01/06 10:09:43;;;;;;;2.90;1.20;;;11.00;99.90;;;;;;5036160;28;20445;-82
2023/01/06 10:12:22;;;;;;;1.90;1.00;;;11.00;99.90;;;;;;5039121;28;20823;-80
2023/01/06 10:14:56;;;;;;;2.00;1.37;;;11.20;99.90;;;;;;5057286;28;20431;-82
2023/01/06 10:17:46;;;;;;;2.20;1.30;;;11.10;99.90;;;;;;5044629;28;20449;-81
2023/01/06 10:20:43;;;;;;;1.57;1.07;;;11.20;99.90;;;;;;5015583;28;20480;-81
2023/01/06 10:23:24;;;;;;;2.20;1.10;;;11.40;99.90;;;;;;5029774;28;20567;-81
2023/01/06 10:25:55;;;;;;;4.30;1.30;;;11.40;99.90;;;;;;5035478;28;20812;-80
2023/01/06 10:28:29;;;;;;;2.30;1.20;;;11.40;99.90;;;;;;5042002;28;20867;-81
2023/01/06 10:31:01;;;;;;;2.17;1.30;;;11.40;99.90;;;;;;5045701;28;20467;-81
2023/01/06 10:33:32;;;;;;;2.57;1.17;;;11.30;99.90;;;;;;5046317;28;20454;-81
2023/01/06 10:36:00;;;;;;;2.37;1.47;;;11.40;99.90;;;;;;5042001;28;20459;-81
2023/01/06 10:38:33;;;;;;;3.20;1.60;;;11.40;99.90;;;;;;5033652;28;21021;-80
2023/01/06 10:41:10;;;;;;;3.33;2.03;;;11.30;99.90;;;;;;5041204;28;20981;-81
2023/01/06 10:43:37;;;;;;;2.57;1.60;;;11.30;99.90;;;;;;5050640;28;20471;-81
2023/01/06 10:46:04;;;;;;;2.47;1.37;;;11.40;99.90;;;;;;5032902;28;20455;-80
2023/01/06 10:48:34;;;;;;;2.10;1.67;;;11.30;99.90;;;;;;5034573;28;20487;-79
2023/01/06 10:51:19;;;;;;;2.00;1.27;;;11.30;99.90;;;;;;5042686;28;20463;-82
2023/01/06 10:53:46;;;;;;;3.27;1.67;;;11.50;99.90;;;;;;5046549;28;20448;-81
2023/01/06 10:56:13;;;;;;;3.87;1.73;;;11.50;99.90;;;;;;5045802;28;20450;-81
2023/01/06 10:58:46;;;;;;;3.73;1.77;;;11.60;99.90;;;;;;5056706;28;20477;-80
2023/01/06 11:01:15;;;;;;;3.57;2.20;;;11.80;99.90;;;;;;5029909;28;21000;-81
2023/01/06 11:03:44;;;;;;;2.33;1.40;;;11.90;99.90;;;;;;5026749;28;20586;-79
2023/01/06 11:06:18;;;;;;;4.00;1.33;;;12.10;99.90;;;;;;5053891;28;20453;-79
2023/01/06 11:08:45;;;;;;;1.90;1.33;;;12.30;99.90;;;;;;5033086;28;20468;-80
2023/01/06 11:11:15;;;;;;;2.50;1.73;;;12.30;99.90;;;;;;5044428;28;21347;-77
2023/01/06 11:13:48;;;;;;;2.77;1.77;;;12.50;99.90;;;;;;5043055;28;21016;-80
2023/01/06 11:16:20;;;;;;;2.37;1.83;;;12.90;99.90;;;;;;5037822;28;20466;-81
2023/01/06 11:18:54;;;;;;;2.23;1.87;;;13.00;99.90;;;;;;5030734;28;20928;-80
2023/01/06 11:21:21;;;;;;;3.17;1.90;;;13.00;99.90;;;;;;5035662;28;20456;-81
2023/01/06 11:23:49;;;;;;;2.60;1.80;;;12.70;99.90;;;;;;5040749;28;20483;-81
2023/01/06 11:26:18;;;;;;;2.80;2.40;;;12.80;99.90;;;;;;5049042;28;20461;-79
2023/01/06 11:28:47;;;;;;;2.60;2.10;;;12.70;99.90;;;;;;5057758;28;20475;-81
2023/01/06 11:31:20;;;;;;;2.57;1.63;;;12.50;99.90;;;;;;5042816;28;20456;-83
2023/01/06 11:33:50;;;;;;;2.87;1.97;;;12.60;99.90;;;;;;5050532;28;20522;-81
2023/01/06 11:36:19;;;;;;;2.23;1.77;;;12.60;99.90;;;;;;5048082;28;20463;-81
2023/01/06 11:38:48;;;;;;;2.43;2.07;;;12.70;99.90;;;;;;5040764;28;20472;-78
2023/01/06 11:41:24;;;;;;;2.20;1.73;;;12.60;99.90;;;;;;5039509;28;20456;-77
2023/01/06 11:44:06;;;;;;;2.73;1.60;;;12.60;99.90;;;;;;5039990;28;20482;-78
2023/01/06 11:46:33;;;;;;;2.30;1.90;;;12.70;99.90;;;;;;5041083;28;20889;-81
2023/01/06 11:49:03;;;;;;;3.33;1.90;;;12.60;99.90;;;;;;5041601;28;20464;-80
2023/01/06 11:51:47;;;;;;;2.10;1.37;;;12.50;99.90;;;;;;5046123;28;20477;-80
2023/01/06 11:54:32;;;;;;;2.33;2.13;;;12.50;99.90;;;;;;5043192;28;20448;-81
2023/01/06 11:57:14;;;;;;;4.20;1.70;;;12.50;99.90;;;;;;5049433;28;20441;-81
2023/01/06 12:00:00;;;;;;;3.50;1.80;;;12.60;99.90;;;;;;5057713;28;20913;-80
2023/01/06 12:02:34;;;;;;;2.03;1.67;;;12.70;99.90;;;;;;5030122;28;20446;-79
2023/01/06 12:05:03;;;;;;;4.33;1.53;;;12.70;99.90;;;;;;5059684;28;20429;-79
2023/01/06 12:07:38;;;;;;;4.53;1.73;;;12.80;99.90;;;;;;5058771;28;20471;-78
2023/01/06 12:10:11;;;;;;;2.33;1.50;;;13.10;99.90;;;;;;5039912;28;20459;-79
2023/01/06 12:12:38;;;;;;;2.57;1.50;;;13.00;99.90;;;;;;5040029;28;20442;-81
2023/01/06 12:15:11;;;;;;;3.63;1.83;;;12.90;99.90;;;;;;5039835;28;20456;-81
2023/01/06 12:17:42;;;;;;;3.83;1.70;;;13.00;99.90;;;;;;5038078;28;20556;-81
2023/01/06 12:20:18;;;;;;;4.60;1.80;;;12.90;99.90;;;;;;5075266;23;20507;-79
2023/01/06 12:22:49;;;;;;;2.80;2.07;;;13.00;99.90;;;;;;5059915;28;20889;-79
2023/01/06 12:25:21;;;;;;;2.87;2.00;;;13.20;99.90;;;;;;5058545;28;20464;-79
2023/01/06 12:27:51;;;;;;;5.60;2.20;;;13.30;99.90;;;;;;5057756;28;21035;-80
2023/01/06 12:30:24;;;;;;;3.67;2.10;;;13.40;99.90;;;;;;5054824;28;20487;-80
2023/01/06 12:32:56;;;;;;;3.57;1.87;;;13.40;99.90;;;;;;5056444;28;20458;-81
2023/01/06 12:35:28;;;;;;;3.77;2.07;;;13.70;99.90;;;;;;5055350;28;20443;-80
2023/01/06 12:38:02;;;;;;;5.40;2.00;;;13.80;99.90;;;;;;5049322;28;20446;-80
2023/01/06 12:40:35;;;;;;;5.47;2.33;;;13.70;99.90;;;;;;5053229;28;21005;-81
2023/01/06 12:43:14;;;;;;;6.27;2.10;;;13.90;99.90;;;;;;5057167;28;20471;-80
2023/01/06 12:45:48;;;;;;;3.37;2.07;;;13.60;99.90;;;;;;5054594;28;20455;-81
2023/01/06 12:48:20;;;;;;;3.53;1.70;;;13.60;99.90;;;;;;5057155;28;20447;-80
2023/01/06 12:50:52;;;;;;;2.90;1.30;;;13.70;99.90;;;;;;5054797;28;20551;-80
2023/01/06 12:53:25;;;;;;;2.13;1.50;;;13.70;99.90;;;;;;5055421;28;20459;-80
2023/01/06 12:56:07;;;;;;;7.53;2.87;;;13.80;99.90;;;;;;5050339;28;20716;-82
2023/01/06 12:58:43;;;;;;;2.50;2.10;;;13.80;99.90;;;;;;5056692;28;20455;-81
2023/01/06 13:01:18;;;;;;;3.50;1.63;;;13.70;99.90;;;;;;5055924;28;21502;-81
2023/01/06 13:04:13;;;;;;;5.97;1.80;;;13.70;99.90;;;;;;5057938;28;20535;-82